Airport View

Enter AWOS ICAO identifier for current METAR.

ex. KFNL

KBPG 261215Z AUTO 15009KT 10SM CLR 20/18 A3010 RMK AO2 T01970179

26 Jun 2019 12:37

Frequency: 118.025

Phone: 432-263-3842

Other Area AWOS: KMDD - K2F5 - KMAF - KSNK

TAF KMAF 261124Z 2612/2712 15010KT P6SM SCT020 FM261600 16014G24KT P6SM FEW080 FM270200 15010KT P6SM SCT250